sensor_id;sensor_type;location;lat;lon;timestamp;temperature;humidity
64961;SHT31;51487;52.266;10.542;2022-09-27T00:00:39;11.69;89.62
64961;SHT31;51487;52.266;10.542;2022-09-27T00:03:08;11.70;89.68
64961;SHT31;51487;52.266;10.542;2022-09-27T00:05:33;11.73;90.16
64961;SHT31;51487;52.266;10.542;2022-09-27T00:07:59;11.73;89.99
64961;SHT31;51487;52.266;10.542;2022-09-27T00:10:25;11.71;90.62
64961;SHT31;51487;52.266;10.542;2022-09-27T00:12:51;11.67;91.00
64961;SHT31;51487;52.266;10.542;2022-09-27T00:15:17;11.67;92.06
64961;SHT31;51487;52.266;10.542;2022-09-27T00:17:43;11.66;91.03
64961;SHT31;51487;52.266;10.542;2022-09-27T00:20:09;11.69;91.02
64961;SHT31;51487;52.266;10.542;2022-09-27T00:22:35;11.70;91.64
64961;SHT31;51487;52.266;10.542;2022-09-27T00:25:01;11.71;91.42
64961;SHT31;51487;52.266;10.542;2022-09-27T00:27:30;11.60;90.34
64961;SHT31;51487;52.266;10.542;2022-09-27T00:29:56;11.57;91.10
64961;SHT31;51487;52.266;10.542;2022-09-27T00:32:21;11.54;91.52
64961;SHT31;51487;52.266;10.542;2022-09-27T00:34:47;11.59;91.73
64961;SHT31;51487;52.266;10.542;2022-09-27T00:37:13;11.59;91.59
64961;SHT31;51487;52.266;10.542;2022-09-27T00:39:38;11.56;91.64
64961;SHT31;51487;52.266;10.542;2022-09-27T00:42:07;11.50;91.35
64961;SHT31;51487;52.266;10.542;2022-09-27T00:47:21;11.43;91.11
64961;SHT31;51487;52.266;10.542;2022-09-27T00:50:01;11.46;90.98
64961;SHT31;51487;52.266;10.542;2022-09-27T00:52:43;11.53;91.52
64961;SHT31;51487;52.266;10.542;2022-09-27T00:55:15;11.49;91.43
64961;SHT31;51487;52.266;10.542;2022-09-27T00:57:44;11.53;92.03
64961;SHT31;51487;52.266;10.542;2022-09-27T01:00:12;11.59;91.62
64961;SHT31;51487;52.266;10.542;2022-09-27T01:02:49;11.53;91.89
64961;SHT31;51487;52.266;10.542;2022-09-27T01:05:18;11.57;91.25
64961;SHT31;51487;52.266;10.542;2022-09-27T01:07:45;11.61;91.43
64961;SHT31;51487;52.266;10.542;2022-09-27T01:10:13;11.56;91.63
64961;SHT31;51487;52.266;10.542;2022-09-27T01:15:58;11.61;91.13
64961;SHT31;51487;52.266;10.542;2022-09-27T01:21:40;11.63;90.99
64961;SHT31;51487;52.266;10.542;2022-09-27T01:27:48;11.57;91.34
64961;SHT31;51487;52.266;10.542;2022-09-27T01:30:21;11.59;91.13
64961;SHT31;51487;52.266;10.542;2022-09-27T01:38:30;11.66;90.68
64961;SHT31;51487;52.266;10.542;2022-09-27T01:46:46;11.66;90.96
64961;SHT31;51487;52.266;10.542;2022-09-27T01:49:21;11.67;90.70
64961;SHT31;51487;52.266;10.542;2022-09-27T01:52:00;11.69;90.78
64961;SHT31;51487;52.266;10.542;2022-09-27T01:54:37;11.61;91.07
64961;SHT31;51487;52.266;10.542;2022-09-27T01:57:08;11.61;90.63
64961;SHT31;51487;52.266;10.542;2022-09-27T01:59:44;11.71;91.05
64961;SHT31;51487;52.266;10.542;2022-09-27T02:02:12;11.63;90.58
64961;SHT31;51487;52.266;10.542;2022-09-27T02:04:42;11.66;90.65
64961;SHT31;51487;52.266;10.542;2022-09-27T02:07:24;11.63;91.06
64961;SHT31;51487;52.266;10.542;2022-09-27T02:09:59;11.70;91.19
64961;SHT31;51487;52.266;10.542;2022-09-27T02:12:32;11.73;91.02
64961;SHT31;51487;52.266;10.542;2022-09-27T02:15:10;11.66;90.96
64961;SHT31;51487;52.266;10.542;2022-09-27T02:18:01;11.71;91.36
64961;SHT31;51487;52.266;10.542;2022-09-27T02:20:39;11.69;91.15
64961;SHT31;51487;52.266;10.542;2022-09-27T02:26:00;11.71;90.88
64961;SHT31;51487;52.266;10.542;2022-09-27T02:31:33;11.78;91.20
64961;SHT31;51487;52.266;10.542;2022-09-27T02:34:14;11.75;91.12
64961;SHT31;51487;52.266;10.542;2022-09-27T02:36:40;11.77;90.89
64961;SHT31;51487;52.266;10.542;2022-09-27T02:39:06;11.80;91.18
64961;SHT31;51487;52.266;10.542;2022-09-27T02:41:32;11.74;91.16
64961;SHT31;51487;52.266;10.542;2022-09-27T02:44:04;11.81;91.40
64961;SHT31;51487;52.266;10.542;2022-09-27T02:47:19;11.73;91.63
64961;SHT31;51487;52.266;10.542;2022-09-27T02:50:32;11.73;91.26
64961;SHT31;51487;52.266;10.542;2022-09-27T02:56:42;11.67;91.52
64961;SHT31;51487;52.266;10.542;2022-09-27T02:59:49;11.66;91.81
64961;SHT31;51487;52.266;10.542;2022-09-27T03:05:29;11.69;91.73
64961;SHT31;51487;52.266;10.542;2022-09-27T03:07:56;11.70;91.37
64961;SHT31;51487;52.266;10.542;2022-09-27T03:10:28;11.66;91.60
64961;SHT31;51487;52.266;10.542;2022-09-27T03:12:55;11.74;91.58
64961;SHT31;51487;52.266;10.542;2022-09-27T03:15:23;11.70;91.60
64961;SHT31;51487;52.266;10.542;2022-09-27T03:17:48;11.70;91.39
64961;SHT31;51487;52.266;10.542;2022-09-27T03:20:14;11.75;91.82
64961;SHT31;51487;52.266;10.542;2022-09-27T03:22:39;11.66;92.44
64961;SHT31;51487;52.266;10.542;2022-09-27T03:25:07;11.67;92.56
64961;SHT31;51487;52.266;10.542;2022-09-27T03:27:33;11.78;92.07
64961;SHT31;51487;52.266;10.542;2022-09-27T03:29:58;11.73;92.17
64961;SHT31;51487;52.266;10.542;2022-09-27T03:32:25;11.82;93.05
64961;SHT31;51487;52.266;10.542;2022-09-27T03:34:51;11.78;93.18
64961;SHT31;51487;52.266;10.542;2022-09-27T03:37:19;11.70;92.52
64961;SHT31;51487;52.266;10.542;2022-09-27T03:39:45;11.67;93.01
64961;SHT31;51487;52.266;10.542;2022-09-27T03:42:10;11.61;92.85
64961;SHT31;51487;52.266;10.542;2022-09-27T03:44:36;11.63;92.81
64961;SHT31;51487;52.266;10.542;2022-09-27T03:47:01;11.59;92.90
64961;SHT31;51487;52.266;10.542;2022-09-27T03:49:27;11.57;93.29
64961;SHT31;51487;52.266;10.542;2022-09-27T03:51:53;11.60;93.67
64961;SHT31;51487;52.266;10.542;2022-09-27T03:54:19;11.66;92.94
64961;SHT31;51487;52.266;10.542;2022-09-27T03:56:45;11.66;92.91
64961;SHT31;51487;52.266;10.542;2022-09-27T03:59:10;11.59;92.80
64961;SHT31;51487;52.266;10.542;2022-09-27T04:01:36;11.53;92.77
64961;SHT31;51487;52.266;10.542;2022-09-27T04:04:03;11.57;93.53
64961;SHT31;51487;52.266;10.542;2022-09-27T04:06:29;11.61;92.41
64961;SHT31;51487;52.266;10.542;2022-09-27T04:08:55;11.61;92.66
64961;SHT31;51487;52.266;10.542;2022-09-27T04:11:21;11.59;92.73
64961;SHT31;51487;52.266;10.542;2022-09-27T04:13:48;11.54;92.59
64961;SHT31;51487;52.266;10.542;2022-09-27T04:16:14;11.56;92.52
64961;SHT31;51487;52.266;10.542;2022-09-27T04:18:41;11.59;92.51
64961;SHT31;51487;52.266;10.542;2022-09-27T04:21:07;11.61;92.35
64961;SHT31;51487;52.266;10.542;2022-09-27T04:23:33;11.59;92.00
64961;SHT31;51487;52.266;10.542;2022-09-27T04:25:59;11.60;92.10
64961;SHT31;51487;52.266;10.542;2022-09-27T04:28:25;11.60;91.71
64961;SHT31;51487;52.266;10.542;2022-09-27T04:30:51;11.61;91.83
64961;SHT31;51487;52.266;10.542;2022-09-27T04:33:18;11.57;92.00
64961;SHT31;51487;52.266;10.542;2022-09-27T04:35:43;11.67;92.72
64961;SHT31;51487;52.266;10.542;2022-09-27T04:38:27;11.69;92.07
64961;SHT31;51487;52.266;10.542;2022-09-27T04:40:53;11.61;92.00
64961;SHT31;51487;52.266;10.542;2022-09-27T04:43:19;11.59;91.89
64961;SHT31;51487;52.266;10.542;2022-09-27T04:45:44;11.56;92.24
64961;SHT31;51487;52.266;10.542;2022-09-27T04:48:10;11.60;91.52
64961;SHT31;51487;52.266;10.542;2022-09-27T04:50:35;11.74;90.80
64961;SHT31;51487;52.266;10.542;2022-09-27T04:53:03;11.74;90.47
64961;SHT31;51487;52.266;10.542;2022-09-27T04:55:28;11.63;91.27
64961;SHT31;51487;52.266;10.542;2022-09-27T04:57:54;11.53;91.70
64961;SHT31;51487;52.266;10.542;2022-09-27T05:00:20;11.59;91.93
64961;SHT31;51487;52.266;10.542;2022-09-27T05:02:46;11.56;91.69
64961;SHT31;51487;52.266;10.542;2022-09-27T05:05:15;11.57;92.11
64961;SHT31;51487;52.266;10.542;2022-09-27T05:07:40;11.57;91.47
64961;SHT31;51487;52.266;10.542;2022-09-27T05:10:08;11.47;92.94
64961;SHT31;51487;52.266;10.542;2022-09-27T05:12:34;11.36;92.48
64961;SHT31;51487;52.266;10.542;2022-09-27T05:15:01;11.41;93.14
64961;SHT31;51487;52.266;10.542;2022-09-27T05:17:26;11.40;93.50
64961;SHT31;51487;52.266;10.542;2022-09-27T05:19:52;11.41;93.29
64961;SHT31;51487;52.266;10.542;2022-09-27T05:22:17;11.47;93.38
64961;SHT31;51487;52.266;10.542;2022-09-27T05:24:44;11.36;93.67
64961;SHT31;51487;52.266;10.542;2022-09-27T05:27:15;11.41;93.18
64961;SHT31;51487;52.266;10.542;2022-09-27T05:29:46;11.37;93.30
64961;SHT31;51487;52.266;10.542;2022-09-27T05:32:12;11.37;93.87
64961;SHT31;51487;52.266;10.542;2022-09-27T05:34:37;11.46;93.94
64961;SHT31;51487;52.266;10.542;2022-09-27T05:37:03;11.44;93.44
64961;SHT31;51487;52.266;10.542;2022-09-27T05:39:29;11.39;93.71
64961;SHT31;51487;52.266;10.542;2022-09-27T05:41:55;11.40;93.74
64961;SHT31;51487;52.266;10.542;2022-09-27T05:44:22;11.36;94.39
64961;SHT31;51487;52.266;10.542;2022-09-27T05:46:48;11.39;94.18
64961;SHT31;51487;52.266;10.542;2022-09-27T05:49:13;11.44;93.26
64961;SHT31;51487;52.266;10.542;2022-09-27T05:51:39;11.37;93.69
64961;SHT31;51487;52.266;10.542;2022-09-27T05:54:04;11.40;93.03
64961;SHT31;51487;52.266;10.542;2022-09-27T05:56:30;11.41;92.16
64961;SHT31;51487;52.266;10.542;2022-09-27T05:58:56;11.34;91.73
64961;SHT31;51487;52.266;10.542;2022-09-27T06:01:22;11.24;92.33
64961;SHT31;51487;52.266;10.542;2022-09-27T06:03:48;11.27;92.41
64961;SHT31;51487;52.266;10.542;2022-09-27T06:06:17;11.19;92.90
64961;SHT31;51487;52.266;10.542;2022-09-27T06:08:42;11.19;93.18
64961;SHT31;51487;52.266;10.542;2022-09-27T06:11:11;11.15;93.91
64961;SHT31;51487;52.266;10.542;2022-09-27T06:13:38;11.15;94.20
64961;SHT31;51487;52.266;10.542;2022-09-27T06:16:06;11.22;94.40
64961;SHT31;51487;52.266;10.542;2022-09-27T06:18:32;11.24;93.19
64961;SHT31;51487;52.266;10.542;2022-09-27T06:20:59;11.23;93.49
64961;SHT31;51487;52.266;10.542;2022-09-27T06:23:29;11.26;93.38
64961;SHT31;51487;52.266;10.542;2022-09-27T06:26:03;11.29;93.72
64961;SHT31;51487;52.266;10.542;2022-09-27T06:28:30;11.26;93.58
64961;SHT31;51487;52.266;10.542;2022-09-27T06:30:56;11.20;94.09
64961;SHT31;51487;52.266;10.542;2022-09-27T06:33:25;11.24;93.37
64961;SHT31;51487;52.266;10.542;2022-09-27T06:35:52;11.16;94.78
64961;SHT31;51487;52.266;10.542;2022-09-27T06:38:18;11.09;93.84
64961;SHT31;51487;52.266;10.542;2022-09-27T06:40:46;11.19;93.35
64961;SHT31;51487;52.266;10.542;2022-09-27T06:43:19;11.12;93.21
64961;SHT31;51487;52.266;10.542;2022-09-27T06:45:45;11.08;93.79
64961;SHT31;51487;52.266;10.542;2022-09-27T06:48:13;11.09;94.14
64961;SHT31;51487;52.266;10.542;2022-09-27T06:50:42;11.12;93.85
64961;SHT31;51487;52.266;10.542;2022-09-27T06:53:13;11.15;93.59
64961;SHT31;51487;52.266;10.542;2022-09-27T06:55:39;11.11;94.01
64961;SHT31;51487;52.266;10.542;2022-09-27T06:58:06;11.12;93.94
64961;SHT31;51487;52.266;10.542;2022-09-27T07:00:51;11.11;93.89
64961;SHT31;51487;52.266;10.542;2022-09-27T07:03:20;11.06;93.55
64961;SHT31;51487;52.266;10.542;2022-09-27T07:06:03;11.05;94.10
64961;SHT31;51487;52.266;10.542;2022-09-27T07:08:30;11.09;94.06
64961;SHT31;51487;52.266;10.542;2022-09-27T07:11:02;11.16;93.75
64961;SHT31;51487;52.266;10.542;2022-09-27T07:13:29;11.11;94.01
64961;SHT31;51487;52.266;10.542;2022-09-27T07:15:57;11.13;93.72
64961;SHT31;51487;52.266;10.542;2022-09-27T07:18:23;11.12;94.22
64961;SHT31;51487;52.266;10.542;2022-09-27T07:20:49;11.15;94.27
64961;SHT31;51487;52.266;10.542;2022-09-27T07:23:15;11.13;94.32
64961;SHT31;51487;52.266;10.542;2022-09-27T07:25:42;10.98;94.37
64961;SHT31;51487;52.266;10.542;2022-09-27T07:28:14;11.15;94.21
64961;SHT31;51487;52.266;10.542;2022-09-27T07:30:40;11.13;94.99
64961;SHT31;51487;52.266;10.542;2022-09-27T07:33:07;11.13;94.95
64961;SHT31;51487;52.266;10.542;2022-09-27T07:35:34;11.06;94.96
64961;SHT31;51487;52.266;10.542;2022-09-27T07:38:05;11.13;95.13
64961;SHT31;51487;52.266;10.542;2022-09-27T07:40:36;11.05;95.10
64961;SHT31;51487;52.266;10.542;2022-09-27T07:43:02;11.05;95.05
64961;SHT31;51487;52.266;10.542;2022-09-27T07:45:29;10.91;95.17
64961;SHT31;51487;52.266;10.542;2022-09-27T07:47:55;11.01;94.48
64961;SHT31;51487;52.266;10.542;2022-09-27T07:50:21;11.11;94.33
64961;SHT31;51487;52.266;10.542;2022-09-27T07:52:49;11.13;95.86
64961;SHT31;51487;52.266;10.542;2022-09-27T07:55:17;11.26;94.72
64961;SHT31;51487;52.266;10.542;2022-09-27T07:57:43;11.16;94.07
64961;SHT31;51487;52.266;10.542;2022-09-27T08:00:16;11.15;94.74
64961;SHT31;51487;52.266;10.542;2022-09-27T08:02:43;11.09;94.02
64961;SHT31;51487;52.266;10.542;2022-09-27T08:05:11;11.03;93.99
64961;SHT31;51487;52.266;10.542;2022-09-27T08:07:38;11.11;93.68
64961;SHT31;51487;52.266;10.542;2022-09-27T08:10:05;11.05;94.78
64961;SHT31;51487;52.266;10.542;2022-09-27T08:12:32;11.12;93.33
64961;SHT31;51487;52.266;10.542;2022-09-27T08:14:57;11.20;93.40
64961;SHT31;51487;52.266;10.542;2022-09-27T08:17:27;11.29;92.59
64961;SHT31;51487;52.266;10.542;2022-09-27T08:19:53;11.19;92.54
64961;SHT31;51487;52.266;10.542;2022-09-27T08:22:20;11.34;92.96
64961;SHT31;51487;52.266;10.542;2022-09-27T08:24:47;11.49;92.83
64961;SHT31;51487;52.266;10.542;2022-09-27T08:27:13;11.51;90.86
64961;SHT31;51487;52.266;10.542;2022-09-27T08:29:39;11.61;91.59
64961;SHT31;51487;52.266;10.542;2022-09-27T08:32:07;11.47;91.94
64961;SHT31;51487;52.266;10.542;2022-09-27T08:34:33;11.57;91.88
64961;SHT31;51487;52.266;10.542;2022-09-27T08:36:59;11.54;92.26
64961;SHT31;51487;52.266;10.542;2022-09-27T08:39:24;11.57;92.07
64961;SHT31;51487;52.266;10.542;2022-09-27T08:50:12;11.57;91.22
64961;SHT31;51487;52.266;10.542;2022-09-27T08:55:35;11.50;90.68
64961;SHT31;51487;52.266;10.542;2022-09-27T08:58:12;11.44;90.63
64961;SHT31;51487;52.266;10.542;2022-09-27T09:00:39;11.34;90.85
64961;SHT31;51487;52.266;10.542;2022-09-27T09:03:17;11.40;91.00
64961;SHT31;51487;52.266;10.542;2022-09-27T09:09:13;11.44;90.79
64961;SHT31;51487;52.266;10.542;2022-09-27T09:23:03;11.12;91.22
64961;SHT31;51487;52.266;10.542;2022-09-27T09:25:52;11.26;90.77
64961;SHT31;51487;52.266;10.542;2022-09-27T09:33:53;11.24;90.87
64961;SHT31;51487;52.266;10.542;2022-09-27T09:36:55;11.30;92.53
64961;SHT31;51487;52.266;10.542;2022-09-27T09:42:30;11.27;91.94
64961;SHT31;51487;52.266;10.542;2022-09-27T09:48:12;11.39;92.26
64961;SHT31;51487;52.266;10.542;2022-09-27T09:50:30;11.37;92.31
64961;SHT31;51487;52.266;10.542;2022-09-27T09:53:11;11.63;91.93
64961;SHT31;51487;52.266;10.542;2022-09-27T09:55:40;11.80;90.34
64961;SHT31;51487;52.266;10.542;2022-09-27T10:01:40;12.43;89.02
64961;SHT31;51487;52.266;10.542;2022-09-27T10:03:59;12.42;88.63
64961;SHT31;51487;52.266;10.542;2022-09-27T10:06:26;12.57;86.60
64961;SHT31;51487;52.266;10.542;2022-09-27T10:08:53;12.19;86.68
64961;SHT31;51487;52.266;10.542;2022-09-27T10:11:39;12.21;89.11
64961;SHT31;51487;52.266;10.542;2022-09-27T10:14:12;12.19;89.22
64961;SHT31;51487;52.266;10.542;2022-09-27T10:16:45;12.21;88.06
64961;SHT31;51487;52.266;10.542;2022-09-27T10:19:16;12.08;87.33
64961;SHT31;51487;52.266;10.542;2022-09-27T10:21:47;11.80;88.56
64961;SHT31;51487;52.266;10.542;2022-09-27T10:24:17;11.82;88.28
64961;SHT31;51487;52.266;10.542;2022-09-27T10:26:46;11.70;88.80
64961;SHT31;51487;52.266;10.542;2022-09-27T10:31:46;11.71;87.55
64961;SHT31;51487;52.266;10.542;2022-09-27T10:34:35;11.70;88.49
64961;SHT31;51487;52.266;10.542;2022-09-27T10:37:24;11.66;89.80
64961;SHT31;51487;52.266;10.542;2022-09-27T10:39:50;11.69;88.51
64961;SHT31;51487;52.266;10.542;2022-09-27T10:42:36;11.85;87.59
64961;SHT31;51487;52.266;10.542;2022-09-27T10:45:27;12.09;87.65
64961;SHT31;51487;52.266;10.542;2022-09-27T10:47:53;12.57;85.00
64961;SHT31;51487;52.266;10.542;2022-09-27T10:50:31;12.70;85.39
64961;SHT31;51487;52.266;10.542;2022-09-27T10:53:21;12.73;83.41
64961;SHT31;51487;52.266;10.542;2022-09-27T10:55:50;12.59;83.93
64961;SHT31;51487;52.266;10.542;2022-09-27T11:01:06;12.67;83.34
64961;SHT31;51487;52.266;10.542;2022-09-27T11:03:44;12.73;82.80
64961;SHT31;51487;52.266;10.542;2022-09-27T11:08:50;13.11;80.12
64961;SHT31;51487;52.266;10.542;2022-09-27T11:11:24;13.22;80.98
64961;SHT31;51487;52.266;10.542;2022-09-27T11:14:01;13.38;79.32
64961;SHT31;51487;52.266;10.542;2022-09-27T11:20:20;13.27;81.79
64961;SHT31;51487;52.266;10.542;2022-09-27T11:23:12;13.32;81.22
64961;SHT31;51487;52.266;10.542;2022-09-27T11:34:48;13.70;79.59
64961;SHT31;51487;52.266;10.542;2022-09-27T11:38:08;13.65;78.55
64961;SHT31;51487;52.266;10.542;2022-09-27T11:43:29;13.25;79.23
64961;SHT31;51487;52.266;10.542;2022-09-27T11:46:34;11.98;82.85
64961;SHT31;51487;52.266;10.542;2022-09-27T11:49:42;11.71;86.07
64961;SHT31;51487;52.266;10.542;2022-09-27T11:55:56;11.60;86.15
64961;SHT31;51487;52.266;10.542;2022-09-27T12:01:40;11.34;85.82
64961;SHT31;51487;52.266;10.542;2022-09-27T12:04:41;11.13;86.43
64961;SHT31;51487;52.266;10.542;2022-09-27T12:07:43;11.13;87.47
64961;SHT31;51487;52.266;10.542;2022-09-27T12:10:15;11.24;86.99
64961;SHT31;51487;52.266;10.542;2022-09-27T12:12:48;11.37;86.54
64961;SHT31;51487;52.266;10.542;2022-09-27T12:15:29;11.44;85.68
64961;SHT31;51487;52.266;10.542;2022-09-27T12:20:46;11.56;85.51
64961;SHT31;51487;52.266;10.542;2022-09-27T12:23:54;11.63;85.46
64961;SHT31;51487;52.266;10.542;2022-09-27T12:26:44;11.54;86.76
64961;SHT31;51487;52.266;10.542;2022-09-27T12:29:17;11.59;86.29
64961;SHT31;51487;52.266;10.542;2022-09-27T12:37:23;11.59;86.64
64961;SHT31;51487;52.266;10.542;2022-09-27T12:40:02;11.53;88.41
64961;SHT31;51487;52.266;10.542;2022-09-27T12:45:17;11.69;87.06
64961;SHT31;51487;52.266;10.542;2022-09-27T12:48:02;11.57;86.21
64961;SHT31;51487;52.266;10.542;2022-09-27T12:50:42;11.67;86.39
64961;SHT31;51487;52.266;10.542;2022-09-27T12:53:33;11.81;86.65
64961;SHT31;51487;52.266;10.542;2022-09-27T13:02:38;11.99;84.04
64961;SHT31;51487;52.266;10.542;2022-09-27T13:11:46;12.14;83.49
64961;SHT31;51487;52.266;10.542;2022-09-27T13:14:25;11.95;85.17
64961;SHT31;51487;52.266;10.542;2022-09-27T13:16:52;11.92;83.47
64961;SHT31;51487;52.266;10.542;2022-09-27T13:19:50;11.81;84.68
64961;SHT31;51487;52.266;10.542;2022-09-27T13:24:51;11.82;84.81
64961;SHT31;51487;52.266;10.542;2022-09-27T13:32:38;11.54;83.60
64961;SHT31;51487;52.266;10.542;2022-09-27T13:35:24;11.36;82.50
64961;SHT31;51487;52.266;10.542;2022-09-27T13:37:58;11.39;83.64
64961;SHT31;51487;52.266;10.542;2022-09-27T13:40:33;11.47;82.63
64961;SHT31;51487;52.266;10.542;2022-09-27T13:45:51;11.32;82.85
64961;SHT31;51487;52.266;10.542;2022-09-27T13:53:40;11.20;82.54
64961;SHT31;51487;52.266;10.542;2022-09-27T13:56:50;11.22;81.88
64961;SHT31;51487;52.266;10.542;2022-09-27T13:59:34;11.37;82.72
64961;SHT31;51487;52.266;10.542;2022-09-27T14:02:31;11.06;83.02
64961;SHT31;51487;52.266;10.542;2022-09-27T14:05:01;11.18;83.63
64961;SHT31;51487;52.266;10.542;2022-09-27T14:07:41;11.34;82.96
64961;SHT31;51487;52.266;10.542;2022-09-27T14:10:17;11.40;81.84
64961;SHT31;51487;52.266;10.542;2022-09-27T14:12:47;11.47;81.93
64961;SHT31;51487;52.266;10.542;2022-09-27T14:15:23;11.54;81.21
64961;SHT31;51487;52.266;10.542;2022-09-27T14:17:51;11.54;81.51
64961;SHT31;51487;52.266;10.542;2022-09-27T14:20:40;11.61;80.82
64961;SHT31;51487;52.266;10.542;2022-09-27T14:23:24;11.88;80.93
64961;SHT31;51487;52.266;10.542;2022-09-27T14:25:52;12.01;81.17
64961;SHT31;51487;52.266;10.542;2022-09-27T14:28:29;11.95;81.24
64961;SHT31;51487;52.266;10.542;2022-09-27T14:31:17;11.94;81.10
64961;SHT31;51487;52.266;10.542;2022-09-27T14:33:44;11.88;81.39
64961;SHT31;51487;52.266;10.542;2022-09-27T14:39:29;11.97;84.06
64961;SHT31;51487;52.266;10.542;2022-09-27T14:42:03;12.01;82.12
64961;SHT31;51487;52.266;10.542;2022-09-27T14:44:30;11.77;82.37
64961;SHT31;51487;52.266;10.542;2022-09-27T14:47:18;12.04;81.25
64961;SHT31;51487;52.266;10.542;2022-09-27T14:52:31;12.15;78.84
64961;SHT31;51487;52.266;10.542;2022-09-27T14:55:11;12.21;78.39
64961;SHT31;51487;52.266;10.542;2022-09-27T14:57:38;12.17;79.44
64961;SHT31;51487;52.266;10.542;2022-09-27T15:02:42;11.98;79.79
64961;SHT31;51487;52.266;10.542;2022-09-27T15:05:18;11.92;79.07
64961;SHT31;51487;52.266;10.542;2022-09-27T15:07:46;11.81;80.81
64961;SHT31;51487;52.266;10.542;2022-09-27T15:10:16;11.51;79.72
64961;SHT31;51487;52.266;10.542;2022-09-27T15:12:48;11.40;81.01
64961;SHT31;51487;52.266;10.542;2022-09-27T15:15:20;11.34;81.11
64961;SHT31;51487;52.266;10.542;2022-09-27T15:17:47;11.24;81.94
64961;SHT31;51487;52.266;10.542;2022-09-27T15:20:34;11.20;81.62
64961;SHT31;51487;52.266;10.542;2022-09-27T15:23:04;11.08;82.42
64961;SHT31;51487;52.266;10.542;2022-09-27T15:25:37;11.12;82.78
64961;SHT31;51487;52.266;10.542;2022-09-27T15:28:15;10.99;82.42
64961;SHT31;51487;52.266;10.542;2022-09-27T15:30:53;10.82;83.65
64961;SHT31;51487;52.266;10.542;2022-09-27T15:33:30;10.91;83.16
64961;SHT31;51487;52.266;10.542;2022-09-27T15:36:00;10.82;84.04
64961;SHT31;51487;52.266;10.542;2022-09-27T15:38:34;10.86;83.67
64961;SHT31;51487;52.266;10.542;2022-09-27T15:41:15;10.81;84.89
64961;SHT31;51487;52.266;10.542;2022-09-27T15:43:50;10.85;86.38
64961;SHT31;51487;52.266;10.542;2022-09-27T15:46:33;10.75;85.76
64961;SHT31;51487;52.266;10.542;2022-09-27T15:51:44;10.82;84.59
64961;SHT31;51487;52.266;10.542;2022-09-27T15:54:10;10.76;83.75
64961;SHT31;51487;52.266;10.542;2022-09-27T15:56:38;10.86;82.87
64961;SHT31;51487;52.266;10.542;2022-09-27T15:59:05;10.83;83.78
64961;SHT31;51487;52.266;10.542;2022-09-27T16:01:32;10.92;83.74
64961;SHT31;51487;52.266;10.542;2022-09-27T16:03:58;10.82;83.87
64961;SHT31;51487;52.266;10.542;2022-09-27T16:06:27;10.75;84.12
64961;SHT31;51487;52.266;10.542;2022-09-27T16:08:53;10.82;84.10
64961;SHT31;51487;52.266;10.542;2022-09-27T16:11:19;10.69;84.22
64961;SHT31;51487;52.266;10.542;2022-09-27T16:13:44;10.72;84.97
64961;SHT31;51487;52.266;10.542;2022-09-27T16:16:19;10.67;84.28
64961;SHT31;51487;52.266;10.542;2022-09-27T16:18:45;10.68;84.24
64961;SHT31;51487;52.266;10.542;2022-09-27T16:21:11;10.68;84.25
64961;SHT31;51487;52.266;10.542;2022-09-27T16:23:37;10.60;84.99
64961;SHT31;51487;52.266;10.542;2022-09-27T16:26:04;10.61;85.76
64961;SHT31;51487;52.266;10.542;2022-09-27T16:28:31;10.69;84.14
64961;SHT31;51487;52.266;10.542;2022-09-27T16:31:05;10.65;83.56
64961;SHT31;51487;52.266;10.542;2022-09-27T16:33:31;10.47;83.98
64961;SHT31;51487;52.266;10.542;2022-09-27T16:35:59;10.37;83.89
64961;SHT31;51487;52.266;10.542;2022-09-27T16:38:28;10.23;84.47
64961;SHT31;51487;52.266;10.542;2022-09-27T16:40:59;10.24;85.30
64961;SHT31;51487;52.266;10.542;2022-09-27T16:43:27;10.18;86.66
64961;SHT31;51487;52.266;10.542;2022-09-27T16:45:53;10.07;86.88
64961;SHT31;51487;52.266;10.542;2022-09-27T16:48:19;10.02;88.62
64961;SHT31;51487;52.266;10.542;2022-09-27T16:50:45;10.06;89.39
64961;SHT31;51487;52.266;10.542;2022-09-27T16:53:29;10.02;88.92
64961;SHT31;51487;52.266;10.542;2022-09-27T16:55:59;10.09;89.50
64961;SHT31;51487;52.266;10.542;2022-09-27T16:58:24;9.96;90.52
64961;SHT31;51487;52.266;10.542;2022-09-27T17:00:51;10.03;91.89
64961;SHT31;51487;52.266;10.542;2022-09-27T17:03:16;10.04;91.44
64961;SHT31;51487;52.266;10.542;2022-09-27T17:05:42;9.94;91.43
64961;SHT31;51487;52.266;10.542;2022-09-27T17:08:09;9.83;92.03
64961;SHT31;51487;52.266;10.542;2022-09-27T17:10:34;9.89;91.87
64961;SHT31;51487;52.266;10.542;2022-09-27T17:13:02;9.81;91.63
64961;SHT31;51487;52.266;10.542;2022-09-27T17:15:28;9.83;92.57
64961;SHT31;51487;52.266;10.542;2022-09-27T17:17:54;9.83;92.53
64961;SHT31;51487;52.266;10.542;2022-09-27T17:20:19;9.90;93.25
64961;SHT31;51487;52.266;10.542;2022-09-27T17:22:45;9.85;92.88
64961;SHT31;51487;52.266;10.542;2022-09-27T17:25:10;9.89;93.62
64961;SHT31;51487;52.266;10.542;2022-09-27T17:27:36;9.76;92.93
64961;SHT31;51487;52.266;10.542;2022-09-27T17:30:01;9.85;92.89
64961;SHT31;51487;52.266;10.542;2022-09-27T17:32:27;9.89;92.55
64961;SHT31;51487;52.266;10.542;2022-09-27T17:34:53;9.90;92.64
64961;SHT31;51487;52.266;10.542;2022-09-27T17:37:20;9.93;92.90
64961;SHT31;51487;52.266;10.542;2022-09-27T17:39:45;9.86;93.03
64961;SHT31;51487;52.266;10.542;2022-09-27T17:42:11;9.85;92.91
64961;SHT31;51487;52.266;10.542;2022-09-27T17:44:37;9.90;92.72
64961;SHT31;51487;52.266;10.542;2022-09-27T17:47:03;9.93;92.62
64961;SHT31;51487;52.266;10.542;2022-09-27T17:49:47;9.93;92.75
64961;SHT31;51487;52.266;10.542;2022-09-27T17:52:31;9.90;93.18
64961;SHT31;51487;52.266;10.542;2022-09-27T17:54:59;9.96;92.50
64961;SHT31;51487;52.266;10.542;2022-09-27T17:57:25;9.89;92.79
64961;SHT31;51487;52.266;10.542;2022-09-27T17:59:50;9.89;92.63
64961;SHT31;51487;52.266;10.542;2022-09-27T18:02:18;9.94;92.55
64961;SHT31;51487;52.266;10.542;2022-09-27T18:04:44;9.94;92.83
64961;SHT31;51487;52.266;10.542;2022-09-27T18:07:09;10.02;92.42
64961;SHT31;51487;52.266;10.542;2022-09-27T18:09:37;10.04;92.71
64961;SHT31;51487;52.266;10.542;2022-09-27T18:12:03;10.03;92.94
64961;SHT31;51487;52.266;10.542;2022-09-27T18:14:29;10.07;92.62
64961;SHT31;51487;52.266;10.542;2022-09-27T18:16:55;10.14;92.05
64961;SHT31;51487;52.266;10.542;2022-09-27T18:19:22;10.06;91.62
64961;SHT31;51487;52.266;10.542;2022-09-27T18:21:49;10.13;91.63